Time;durP1;ratioP1;P1;durP2;ratioP2;P2;SDS_P1;SDS_P2;PMS_P1;PMS_P2;Temp;Humidity;BMP_temperature;BMP_pressure;BME280_temperature;BME280_humidity;BME280_pressure;Samples;Min_cycle;Max_cycle;Signal;HPM_P1;HPM_P2
2023/03/04 00:02:17;;;;;;;16.85;5.32;;;;;;;4.08;80.04;102447.50;6178031;23;20083;-81
2023/03/04 00:04:42;;;;;;;18.35;5.57;;;;;;;4.09;80.09;102445.75;6194403;23;20035;-81
2023/03/04 00:07:08;;;;;;;15.43;5.47;;;;;;;4.08;79.94;102441.38;6225225;23;20011;-81
2023/03/04 00:09:33;;;;;;;12.90;6.05;;;;;;;4.12;80.08;102448.41;6198684;23;20005;-81
2023/03/04 00:11:58;;;;;;;14.38;5.70;;;;;;;4.05;79.95;102436.97;6209288;23;20004;-82
2023/03/04 00:14:23;;;;;;;17.42;5.80;;;;;;;4.10;79.98;102444.91;6207185;23;20577;-82
2023/03/04 00:16:49;;;;;;;20.92;6.20;;;;;;;4.07;80.47;102450.16;6207128;23;20004;-83
2023/03/04 00:19:14;;;;;;;18.88;5.38;;;;;;;4.05;80.72;102438.72;6208282;23;20350;-81
2023/03/04 00:21:40;;;;;;;17.40;5.45;;;;;;;3.97;80.55;102431.69;6206552;23;20011;-82
2023/03/04 00:24:05;;;;;;;15.32;5.70;;;;;;;4.02;80.56;102434.34;6208903;23;20032;-83
2023/03/04 00:26:31;;;;;;;19.17;5.47;;;;;;;4.03;80.52;102430.81;6208881;23;20007;-82
2023/03/04 00:28:56;;;;;;;13.77;4.80;;;;;;;4.07;80.75;102434.34;6207935;23;20087;-82
2023/03/04 00:31:21;;;;;;;15.90;4.80;;;;;;;4.00;80.81;102426.41;6208209;23;20187;-81
2023/03/04 00:33:47;;;;;;;16.58;5.47;;;;;;;3.98;80.96;102429.94;6206775;23;20011;-82
2023/03/04 00:36:12;;;;;;;18.20;5.60;;;;;;;4.02;81.05;102436.09;6207008;23;20023;-82
2023/03/04 00:38:38;;;;;;;24.27;5.72;;;;;;;4.00;80.91;102431.69;6207379;23;20008;-81
2023/03/04 00:41:03;;;;;;;16.65;5.38;;;;;;;4.03;81.13;102430.81;6207262;23;20008;-81
2023/03/04 00:43:29;;;;;;;18.50;5.20;;;;;;;4.03;81.19;102435.22;6207245;23;20105;-81
2023/03/04 00:45:54;;;;;;;18.80;5.85;;;;;;;4.04;81.59;102431.69;6211097;23;20001;-80
2023/03/04 00:48:20;;;;;;;17.73;6.45;;;;;;;3.99;81.31;102424.66;6212587;23;20505;-80
2023/03/04 00:50:45;;;;;;;20.08;5.78;;;;;;;4.02;81.42;102431.72;6212130;23;20008;-81
2023/03/04 00:53:10;;;;;;;17.92;5.60;;;;;;;4.02;81.72;102429.06;6210960;23;20000;-82
2023/03/04 00:55:36;;;;;;;20.00;5.82;;;;;;;4.00;81.63;102429.06;6212163;23;20004;-83
2023/03/04 00:58:01;;;;;;;18.27;5.57;;;;;;;4.00;81.63;102428.19;6212090;23;20012;-81
2023/03/04 01:00:27;;;;;;;19.15;5.75;;;;;;;4.00;82.16;102431.69;6213544;23;20027;-81
2023/03/04 01:02:52;;;;;;;16.92;5.28;;;;;;;4.00;82.05;102438.72;6213315;23;20019;-82
2023/03/04 01:05:18;;;;;;;18.90;5.72;;;;;;;4.00;82.20;102434.31;6211972;23;20520;-82
2023/03/04 01:07:43;;;;;;;16.15;5.22;;;;;;;3.97;82.18;102429.06;6213311;23;20011;-81
2023/03/04 01:10:11;;;;;;;17.38;5.85;;;;;;;3.98;82.59;102430.81;6213200;23;20027;-82
2023/03/04 01:12:39;;;;;;;17.42;6.32;;;;;;;4.00;82.42;102441.34;6185347;23;20012;-82
2023/03/04 01:15:05;;;;;;;18.65;5.13;;;;;;;3.98;82.67;102440.47;6212153;23;20005;-83
2023/03/04 01:17:30;;;;;;;13.57;5.28;;;;;;;3.96;82.32;102440.47;6212107;23;20067;-82
2023/03/04 01:19:55;;;;;;;16.33;5.00;;;;;;;3.92;82.29;102429.91;6210539;23;20425;-82
2023/03/04 01:22:20;;;;;;;16.92;5.50;;;;;;;3.94;82.45;102433.44;6186693;23;20005;-82
2023/03/04 01:24:46;;;;;;;16.35;6.10;;;;;;;3.92;82.73;102432.56;6217051;23;20008;-82
2023/03/04 01:27:12;;;;;;;15.60;5.40;;;;;;;3.93;82.62;102431.66;6213354;23;20005;-82
2023/03/04 01:29:37;;;;;;;18.65;5.82;;;;;;;3.93;82.51;102439.56;6207486;23;20008;-83
2023/03/04 01:32:03;;;;;;;16.85;4.80;;;;;;;3.93;82.78;102437.84;6208384;23;20004;-81
2023/03/04 01:34:29;;;;;;;16.55;5.20;;;;;;;3.95;82.71;102435.19;6207007;23;20308;-81
2023/03/04 01:36:54;;;;;;;16.80;4.93;;;;;;;3.94;82.93;102431.69;6208455;23;20004;-82
2023/03/04 01:39:19;;;;;;;20.02;5.30;;;;;;;3.96;82.82;102429.03;6208460;23;20001;-82
2023/03/04 01:41:45;;;;;;;13.63;5.03;;;;;;;3.93;82.93;102426.41;6205520;23;20031;-81
2023/03/04 01:44:11;;;;;;;16.02;5.13;;;;;;;3.94;83.13;102421.16;6205551;23;20012;-82
2023/03/04 01:46:37;;;;;;;12.43;4.53;;;;;;;3.92;83.31;102414.97;6208214;23;20117;-82
2023/03/04 01:49:03;;;;;;;12.88;4.55;;;;;;;3.93;83.37;102418.50;6209046;23;20013;-82
2023/03/04 01:51:28;;;;;;;21.58;5.13;;;;;;;3.90;83.79;102414.13;6208300;23;20083;-81
2023/03/04 01:53:54;;;;;;;12.55;4.40;;;;;;;3.92;83.83;102412.34;6180915;23;20030;-80
2023/03/04 01:56:24;;;;;;;17.20;4.65;;;;;;;3.92;83.77;102409.72;6209122;23;20008;-82
2023/03/04 01:59:05;;;;;;;21.20;5.18;;;;;;;3.94;83.97;102404.47;6208424;23;20375;-81
2023/03/04 02:01:31;;;;;;;18.80;5.00;;;;;;;3.91;83.86;102407.97;6207208;23;20009;-81
2023/03/04 02:03:56;;;;;;;15.60;4.65;;;;;;;3.92;84.35;102400.94;6208332;23;20228;-82
2023/03/04 02:06:22;;;;;;;15.25;4.30;;;;;;;3.91;84.04;102402.69;6207333;23;20012;-82
2023/03/04 02:08:47;;;;;;;14.90;4.28;;;;;;;3.90;84.58;102400.06;6206144;23;20004;-82
2023/03/04 02:11:12;;;;;;;18.65;5.10;;;;;;;3.89;84.27;102400.97;6209189;23;20011;-82
2023/03/04 02:13:38;;;;;;;14.38;4.50;;;;;;;3.85;84.11;102380.75;6207803;23;20007;-81
2023/03/04 02:16:03;;;;;;;15.23;3.90;;;;;;;3.82;84.22;102380.75;6211210;23;20023;-82
2023/03/04 02:18:29;;;;;;;17.00;4.90;;;;;;;3.89;84.09;102393.06;6214115;23;20093;-82
2023/03/04 02:21:12;;;;;;;11.40;3.78;;;;;;;3.89;83.90;102388.66;6218235;23;20005;-82
2023/03/04 02:23:59;;;;;;;12.15;4.00;;;;;;;3.88;84.04;102388.63;6216269;23;20004;-81
2023/03/04 02:26:29;;;;;;;14.55;4.22;;;;;;;3.86;84.37;102388.66;6218971;23;20244;-80
2023/03/04 02:28:57;;;;;;;18.73;4.57;;;;;;;3.85;84.64;102386.03;6219463;23;20000;-81
2023/03/04 02:31:38;;;;;;;11.50;3.90;;;;;;;3.86;84.95;102388.66;6215016;23;20009;-81
2023/03/04 02:34:13;;;;;;;14.45;3.88;;;;;;;3.83;84.89;102387.75;6208271;23;20142;-82
2023/03/04 02:36:39;;;;;;;10.57;3.40;;;;;;;3.83;84.35;102380.72;6207922;23;20008;-82
2023/03/04 02:39:20;;;;;;;12.15;3.78;;;;;;;3.84;84.21;102381.59;6209734;23;20001;-82
2023/03/04 02:41:46;;;;;;;11.93;3.97;;;;;;;3.82;84.17;102380.75;6205911;23;20031;-82
2023/03/04 02:44:18;;;;;;;13.73;3.75;;;;;;;3.81;84.27;102373.72;6208623;23;20009;-82
2023/03/04 02:46:43;;;;;;;10.65;3.50;;;;;;;3.81;84.39;102376.34;6209486;23;20000;-82
2023/03/04 02:49:09;;;;;;;12.38;3.63;;;;;;;3.80;84.60;102364.91;6209894;23;20000;-82
2023/03/04 02:51:34;;;;;;;13.52;3.83;;;;;;;3.80;84.76;102372.81;6208134;23;20008;-82
2023/03/04 02:53:59;;;;;;;10.65;3.58;;;;;;;3.79;84.75;102371.06;6207707;23;20027;-82
2023/03/04 02:56:25;;;;;;;19.15;4.07;;;;;;;3.73;84.94;102358.78;6208836;23;20007;-81
2023/03/04 02:58:50;;;;;;;13.25;3.85;;;;;;;3.74;84.80;102363.16;6212217;23;20000;-82
2023/03/04 03:01:15;;;;;;;10.60;3.70;;;;;;;3.78;84.97;102365.81;6210963;23;20005;-83
2023/03/04 03:03:41;;;;;;;12.15;3.97;;;;;;;3.77;85.21;102362.31;6184220;23;20005;-82
2023/03/04 03:06:06;;;;;;;15.77;4.03;;;;;;;3.75;85.21;102358.78;6211643;23;20076;-82
2023/03/04 03:08:32;;;;;;;13.90;4.03;;;;;;;3.79;85.20;102365.81;6212074;23;20008;-82
2023/03/04 03:10:57;;;;;;;10.75;3.85;;;;;;;3.79;85.52;102368.44;6211085;23;20020;-82
2023/03/04 03:13:23;;;;;;;13.93;3.45;;;;;;;3.79;85.61;102352.63;6212678;23;20011;-81
2023/03/04 03:15:49;;;;;;;12.90;3.30;;;;;;;3.78;85.76;102356.16;6212272;23;20419;-81
2023/03/04 03:18:14;;;;;;;13.98;3.55;;;;;;;3.74;85.78;102354.38;6211663;23;20031;-81
2023/03/04 03:20:40;;;;;;;14.95;4.32;;;;;;;3.78;85.81;102356.16;6210105;23;20335;-82
2023/03/04 03:23:06;;;;;;;12.57;3.63;;;;;;;3.78;86.03;102360.53;6213706;23;20029;-81
2023/03/04 03:25:32;;;;;;;13.52;3.58;;;;;;;3.77;85.74;102357.03;6211938;23;20013;-82
2023/03/04 03:27:57;;;;;;;11.63;3.60;;;;;;;3.78;86.11;102357.91;6210996;23;20031;-83
2023/03/04 03:30:22;;;;;;;14.27;3.45;;;;;;;3.75;86.47;102351.75;6208672;23;20381;-83
2023/03/04 03:32:47;;;;;;;14.15;3.38;;;;;;;3.74;86.21;102339.47;6207771;23;20004;-82
2023/03/04 03:35:13;;;;;;;12.63;4.20;;;;;;;3.73;86.35;102350.00;6208184;23;20153;-85
2023/03/04 03:37:38;;;;;;;11.73;3.15;;;;;;;3.77;86.68;102357.03;6207428;23;20043;-82
2023/03/04 03:40:04;;;;;;;13.55;3.88;;;;;;;3.77;86.85;102357.03;6209030;23;20005;-83
2023/03/04 03:42:29;;;;;;;13.90;3.70;;;;;;;3.67;86.53;102337.69;6205253;23;20112;-82
2023/03/04 03:44:55;;;;;;;15.70;3.75;;;;;;;3.75;86.86;102342.97;6203122;23;20000;-82
2023/03/04 03:47:20;;;;;;;12.35;3.60;;;;;;;3.75;86.90;102359.66;6205916;23;20296;-82
2023/03/04 03:49:46;;;;;;;13.25;3.72;;;;;;;3.74;87.27;102350.00;6204084;23;20441;-82
2023/03/04 03:52:11;;;;;;;13.52;4.20;;;;;;;3.70;87.71;102342.97;6202813;23;20369;-82
2023/03/04 03:54:37;;;;;;;16.60;4.10;;;;;;;3.69;87.69;102343.84;6201879;23;20008;-81
2023/03/04 03:57:02;;;;;;;11.73;3.58;;;;;;;3.72;87.92;102349.13;6203256;23;20435;-82
2023/03/04 03:59:27;;;;;;;14.60;3.65;;;;;;;3.72;87.92;102342.97;6202836;23;20000;-82
2023/03/04 04:01:53;;;;;;;13.27;3.88;;;;;;;3.70;88.11;102344.72;6200580;23;20430;-82
2023/03/04 04:04:18;;;;;;;9.52;3.45;;;;;;;3.69;88.50;102343.84;6200915;23;20375;-82
2023/03/04 04:06:44;;;;;;;11.40;3.58;;;;;;;3.67;89.08;102345.59;6202103;23;20209;-82
2023/03/04 04:09:09;;;;;;;15.13;3.60;;;;;;;3.70;89.04;102347.34;6204047;23;20374;-82
2023/03/04 04:11:34;;;;;;;16.55;3.85;;;;;;;3.66;89.34;102348.22;6206295;23;20004;-82
2023/03/04 04:14:00;;;;;;;10.90;3.00;;;;;;;3.61;89.65;102339.44;6207624;23;20004;-82
2023/03/04 04:16:25;;;;;;;11.65;3.42;;;;;;;3.64;89.31;102344.72;6207007;23;20008;-82
2023/03/04 04:18:50;;;;;;;11.10;3.80;;;;;;;3.66;89.42;102350.88;6207931;23;20012;-82
2023/03/04 04:21:16;;;;;;;14.60;3.63;;;;;;;3.66;89.29;102348.22;6207678;23;20012;-82
2023/03/04 04:23:41;;;;;;;11.07;3.83;;;;;;;3.66;88.67;102348.22;6211052;23;20032;-81
2023/03/04 04:26:06;;;;;;;12.45;3.55;;;;;;;3.64;88.66;102340.34;6198849;23;20518;-81
2023/03/04 04:28:32;;;;;;;13.45;3.45;;;;;;;3.60;88.41;102335.94;6196399;23;20008;-80
2023/03/04 04:30:57;;;;;;;12.75;3.67;;;;;;;3.65;88.42;102341.22;6215702;23;20016;-82
2023/03/04 04:33:22;;;;;;;13.85;3.78;;;;;;;3.66;88.23;102348.22;6206636;23;20019;-82
2023/03/04 04:35:48;;;;;;;13.40;3.25;;;;;;;3.63;87.69;102340.31;6207720;23;20008;-81
2023/03/04 04:38:13;;;;;;;10.95;3.08;;;;;;;3.65;87.42;102346.47;6209938;23;20000;-82
2023/03/04 04:40:38;;;;;;;15.23;3.80;;;;;;;3.62;87.40;102347.34;6208353;23;20435;-83
2023/03/04 04:43:04;;;;;;;12.35;3.85;;;;;;;3.62;87.50;102349.09;6207989;23;20039;-83
2023/03/04 04:45:29;;;;;;;12.23;3.45;;;;;;;3.67;86.92;102349.97;6208787;23;20015;-80
2023/03/04 04:47:56;;;;;;;11.63;3.10;;;;;;;3.63;87.28;102354.34;6207407;23;20010;-82
2023/03/04 04:50:24;;;;;;;10.75;3.80;;;;;;;3.65;87.47;102352.63;6207256;23;20015;-82
2023/03/04 04:52:50;;;;;;;12.48;3.63;;;;;;;3.66;87.76;102364.91;6203648;23;20401;-82
2023/03/04 04:55:15;;;;;;;12.35;3.67;;;;;;;3.67;87.18;102355.25;6208471;23;20032;-82
2023/03/04 04:57:44;;;;;;;12.73;4.18;;;;;;;3.64;87.16;102350.00;6207372;23;20011;-82
2023/03/04 05:00:10;;;;;;;9.15;4.07;;;;;;;3.65;87.73;102359.66;6208444;23;20004;-81
2023/03/04 05:02:36;;;;;;;14.90;4.65;;;;;;;3.65;87.34;102357.00;6205251;23;20004;-82
2023/03/04 05:05:05;;;;;;;12.40;4.82;;;;;;;3.61;87.53;102357.88;6208009;23;20028;-82
2023/03/04 05:07:31;;;;;;;13.43;4.60;;;;;;;3.64;87.11;102355.25;6208381;23;20034;-82
2023/03/04 05:09:57;;;;;;;14.00;4.10;;;;;;;3.64;87.48;102364.03;6207756;23;20004;-81
2023/03/04 05:12:22;;;;;;;13.85;4.22;;;;;;;3.63;87.41;102359.63;6206843;23;20091;-82
2023/03/04 05:14:47;;;;;;;9.98;4.13;;;;;;;3.63;87.43;102356.13;6207512;23;20288;-82
2023/03/04 05:17:13;;;;;;;13.50;4.22;;;;;;;3.62;87.31;102357.88;6205817;23;20012;-83
2023/03/04 05:19:38;;;;;;;9.48;3.40;;;;;;;3.60;87.14;102342.97;6206417;23;20016;-82
2023/03/04 05:22:03;;;;;;;10.15;3.78;;;;;;;3.65;87.08;102349.13;6206917;23;20036;-81
2023/03/04 05:24:29;;;;;;;13.55;4.80;;;;;;;3.59;87.05;102349.97;6206852;23;20399;-82
2023/03/04 05:26:54;;;;;;;10.65;4.28;;;;;;;3.63;87.06;102353.47;6207153;23;20028;-81
2023/03/04 05:29:19;;;;;;;14.35;4.45;;;;;;;3.62;86.98;102349.97;6206057;23;20008;-81
2023/03/04 05:31:45;;;;;;;15.05;4.40;;;;;;;3.63;87.18;102348.22;6205490;23;20005;-82
2023/03/04 05:34:10;;;;;;;12.65;4.53;;;;;;;3.60;87.02;102349.09;6207568;23;20652;-82
2023/03/04 05:36:35;;;;;;;13.95;4.30;;;;;;;3.61;86.96;102347.34;6207572;23;20012;-83
2023/03/04 05:39:01;;;;;;;13.48;4.80;;;;;;;3.62;87.12;102354.38;6208938;23;20019;-83
2023/03/04 05:41:26;;;;;;;11.60;4.05;;;;;;;3.62;87.09;102362.25;6205588;23;20009;-82
2023/03/04 05:43:52;;;;;;;13.82;4.30;;;;;;;3.61;87.00;102360.50;6207324;23;20040;-82
2023/03/04 05:46:24;;;;;;;12.07;4.13;;;;;;;3.61;87.02;102363.16;6184457;23;20012;-81
2023/03/04 05:48:50;;;;;;;14.02;4.78;;;;;;;3.61;87.18;102360.50;6208289;23;20434;-82
2023/03/04 05:51:15;;;;;;;14.65;4.35;;;;;;;3.61;87.42;102368.41;6212986;23;20020;-82
2023/03/04 05:53:40;;;;;;;13.13;4.25;;;;;;;3.49;87.20;102342.94;6211356;23;20020;-82
2023/03/04 05:56:11;;;;;;;14.00;4.63;;;;;;;3.60;87.25;102364.91;6207220;23;20315;-82
2023/03/04 05:58:36;;;;;;;14.30;4.93;;;;;;;3.61;87.53;102360.50;6206827;23;20001;-82
2023/03/04 06:01:04;;;;;;;11.25;4.20;;;;;;;3.57;87.50;102358.75;6206108;23;20004;-83
2023/03/04 06:03:29;;;;;;;13.73;4.38;;;;;;;3.60;87.64;102359.63;6206086;23;20016;-82
2023/03/04 06:05:54;;;;;;;10.50;4.18;;;;;;;3.60;87.55;102367.53;6206614;23;20013;-82
2023/03/04 06:08:20;;;;;;;18.80;4.88;;;;;;;3.59;87.69;102359.63;6207952;23;20012;-82
2023/03/04 06:10:45;;;;;;;14.93;4.20;;;;;;;3.59;87.86;102360.50;6205326;23;20005;-82
2023/03/04 06:13:11;;;;;;;12.32;4.18;;;;;;;3.56;88.12;102357.88;6207370;23;20386;-82
2023/03/04 06:15:38;;;;;;;11.27;3.95;;;;;;;3.58;88.14;102366.63;6206111;23;20004;-83
2023/03/04 06:18:04;;;;;;;10.60;3.50;;;;;;;3.56;88.63;102367.53;6209288;23;20071;-83
2023/03/04 06:20:30;;;;;;;12.30;4.20;;;;;;;3.52;88.83;102363.13;6208092;23;20084;-83
2023/03/04 06:22:55;;;;;;;12.63;3.80;;;;;;;3.53;89.00;102364.88;6209896;23;20027;-83
2023/03/04 06:25:21;;;;;;;12.52;3.63;;;;;;;3.54;89.14;102370.13;6208396;23;20004;-82
2023/03/04 06:27:46;;;;;;;13.38;3.90;;;;;;;3.52;89.48;102371.91;6208120;23;20014;-82
2023/03/04 06:30:12;;;;;;;10.85;4.00;;;;;;;3.54;90.17;102377.16;6222698;23;20012;-82
2023/03/04 06:32:37;;;;;;;11.45;4.15;;;;;;;3.53;90.75;102381.56;6225054;23;20036;-81
2023/03/04 06:35:03;;;;;;;9.45;3.92;;;;;;;3.52;90.92;102377.16;6226441;23;20016;-84
2023/03/04 06:37:28;;;;;;;8.90;3.53;;;;;;;3.51;91.45;102380.66;6181665;23;20438;-83
2023/03/04 06:39:54;;;;;;;11.43;3.70;;;;;;;3.49;91.70;102385.03;6207999;23;20063;-81
2023/03/04 06:42:20;;;;;;;9.45;3.33;;;;;;;3.49;91.85;102377.16;6209280;23;20036;-82
2023/03/04 06:44:48;;;;;;;13.80;3.92;;;;;;;3.50;92.19;102395.56;6208100;23;20339;-82
2023/03/04 06:47:13;;;;;;;11.82;3.05;;;;;;;3.50;92.19;102389.44;6209081;23;20435;-83
2023/03/04 06:49:39;;;;;;;7.97;3.17;;;;;;;3.51;92.06;102396.44;6207284;23;20004;-82
2023/03/04 06:52:04;;;;;;;8.30;2.70;;;;;;;3.52;92.78;102382.44;6206224;23;20043;-80
2023/03/04 06:54:29;;;;;;;11.82;3.33;;;;;;;3.48;92.54;102376.28;6208286;23;20095;-83
2023/03/04 06:56:54;;;;;;;7.82;2.67;;;;;;;3.54;92.59;102395.59;6208013;23;20008;-82
2023/03/04 06:59:21;;;;;;;10.25;3.35;;;;;;;3.56;92.89;102399.13;6206942;23;20008;-82
2023/03/04 07:01:46;;;;;;;9.90;2.85;;;;;;;3.53;93.02;102391.22;6207080;23;20311;-82
2023/03/04 07:04:12;;;;;;;6.88;2.90;;;;;;;3.56;93.51;102399.13;6208916;23;20021;-82
2023/03/04 07:06:38;;;;;;;7.45;2.83;;;;;;;3.56;94.06;102391.22;6207927;23;20079;-82
2023/03/04 07:09:03;;;;;;;9.38;2.92;;;;;;;3.56;94.22;102396.50;6208669;23;20036;-82
2023/03/04 07:11:28;;;;;;;10.73;3.25;;;;;;;3.60;93.99;102395.63;6207199;23;20011;-82
2023/03/04 07:13:54;;;;;;;9.18;3.15;;;;;;;3.62;93.87;102412.28;6207249;23;20004;-82
2023/03/04 07:16:21;;;;;;;7.35;3.13;;;;;;;3.63;94.35;102400.88;6207967;23;20023;-83
2023/03/04 07:18:46;;;;;;;6.35;3.10;;;;;;;3.63;94.54;102396.47;6207631;23;20111;-81
2023/03/04 07:21:14;;;;;;;8.02;3.35;;;;;;;3.64;94.53;102400.91;6210753;23;20116;-80
2023/03/04 07:23:40;;;;;;;9.50;3.55;;;;;;;3.67;94.58;102405.28;6210176;23;20012;-84
2023/03/04 07:26:05;;;;;;;9.40;3.85;;;;;;;3.67;95.22;102407.91;6207212;23;20005;-83
2023/03/04 07:28:31;;;;;;;8.48;3.50;;;;;;;3.65;95.57;102401.78;6205746;23;20238;-82
2023/03/04 07:30:56;;;;;;;9.65;3.50;;;;;;;3.68;95.57;102401.78;6207507;23;20008;-81
2023/03/04 07:33:22;;;;;;;7.82;3.35;;;;;;;3.69;95.74;102411.44;6207846;23;20287;-83
2023/03/04 07:35:47;;;;;;;11.43;4.10;;;;;;;3.73;95.61;102414.09;6205438;23;20457;-83
2023/03/04 07:38:12;;;;;;;8.80;3.65;;;;;;;3.73;95.87;102414.09;6206908;23;20067;-82
2023/03/04 07:40:38;;;;;;;11.10;4.07;;;;;;;3.79;95.85;102420.22;6206312;23;20005;-82
2023/03/04 07:43:04;;;;;;;7.63;3.58;;;;;;;3.80;95.75;102419.34;6206474;23;20011;-83
2023/03/04 07:45:29;;;;;;;7.50;3.85;;;;;;;3.85;96.14;102420.25;6207309;23;20000;-83
2023/03/04 07:47:54;;;;;;;10.25;4.18;;;;;;;3.85;96.25;102412.38;6207644;23;20004;-82
2023/03/04 07:50:21;;;;;;;8.15;3.92;;;;;;;3.92;96.46;102422.88;6207751;23;20039;-83
2023/03/04 07:52:49;;;;;;;17.08;6.18;;;;;;;3.95;96.17;102425.53;6209229;23;20596;-82
2023/03/04 07:55:16;;;;;;;9.45;4.75;;;;;;;3.97;95.94;102422.91;6207543;23;20036;-82
2023/03/04 07:57:43;;;;;;;8.30;4.18;;;;;;;3.98;95.73;102428.19;6207185;23;20599;-82
2023/03/04 08:00:11;;;;;;;11.15;4.10;;;;;;;3.99;95.37;102429.94;6205675;23;20143;-82
2023/03/04 08:02:36;;;;;;;7.18;3.47;;;;;;;4.03;95.62;102427.31;6207321;23;20024;-82
2023/03/04 08:05:02;;;;;;;12.27;5.25;;;;;;;4.07;95.56;102429.94;6207983;23;20016;-83
2023/03/04 08:07:27;;;;;;;11.13;4.05;;;;;;;4.08;95.08;102429.06;6179798;23;20501;-82
2023/03/04 08:09:52;;;;;;;8.32;3.60;;;;;;;4.08;95.16;102425.56;6206491;23;20009;-83
2023/03/04 08:12:18;;;;;;;7.15;3.42;;;;;;;4.14;95.02;102434.38;6207905;23;20316;-83
2023/03/04 08:14:43;;;;;;;8.30;3.90;;;;;;;4.15;95.50;102433.47;6207979;23;20047;-83
2023/03/04 08:17:09;;;;;;;7.63;3.22;;;;;;;4.13;95.27;102434.34;6208832;23;20008;-83
2023/03/04 08:19:35;;;;;;;12.52;4.15;;;;;;;4.15;94.96;102436.13;6206691;23;20059;-82
2023/03/04 08:22:01;;;;;;;8.82;3.58;;;;;;;4.15;94.79;102433.47;6180813;23;20012;-82
2023/03/04 08:24:26;;;;;;;9.65;4.10;;;;;;;4.18;94.91;102436.13;6207932;23;20023;-81
2023/03/04 08:26:52;;;;;;;6.70;3.40;;;;;;;4.26;95.25;102438.75;6207251;23;20008;-83
2023/03/04 08:29:20;;;;;;;11.60;3.88;;;;;;;4.39;94.88;102447.53;6206928;23;20032;-83
2023/03/04 08:31:47;;;;;;;9.38;4.07;;;;;;;4.48;93.99;102442.28;6206220;23;20009;-82
2023/03/04 08:34:13;;;;;;;11.10;3.78;;;;;;;4.60;93.50;102442.28;6217504;23;20016;-80
2023/03/04 08:36:42;;;;;;;10.45;3.90;;;;;;;4.74;92.18;102442.25;6220108;23;20004;-81
2023/03/04 08:39:11;;;;;;;11.02;4.03;;;;;;;4.86;91.71;102436.97;6220248;23;20063;-82
2023/03/04 08:41:37;;;;;;;7.90;3.85;;;;;;;5.06;90.87;102446.59;6206501;23;20035;-83
2023/03/04 08:44:02;;;;;;;10.20;3.85;;;;;;;5.24;90.34;102446.56;6207218;23;20004;-83
2023/03/04 08:46:29;;;;;;;9.30;3.80;;;;;;;5.24;89.52;102449.19;6206956;23;20013;-83
2023/03/04 08:48:54;;;;;;;9.40;3.97;;;;;;;5.25;90.41;102430.69;6208046;23;20011;-82
2023/03/04 08:51:21;;;;;;;11.27;4.25;;;;;;;5.50;89.35;102442.03;6208502;23;20046;-82
2023/03/04 08:53:46;;;;;;;7.10;3.65;;;;;;;5.81;88.27;102428.69;6207957;23;20528;-82
2023/03/04 08:56:13;;;;;;;10.50;3.78;;;;;;;6.27;85.33;102440.75;6207535;23;20008;-83
2023/03/04 08:58:39;;;;;;;9.05;3.65;;;;;;;6.42;83.73;102443.28;6207447;23;20148;-83
2023/03/04 09:01:07;;;;;;;9.90;4.30;;;;;;;6.36;82.75;102436.28;6206890;23;20390;-83
2023/03/04 09:03:33;;;;;;;8.13;3.70;;;;;;;6.24;82.71;102431.97;6206607;23;20343;-83
2023/03/04 09:06:00;;;;;;;11.35;4.00;;;;;;;6.18;83.44;102431.13;6207170;23;20013;-83
2023/03/04 09:08:26;;;;;;;13.73;5.72;;;;;;;6.10;83.50;102428.53;6206874;23;20020;-83
2023/03/04 09:10:53;;;;;;;11.07;3.67;;;;;;;6.07;83.74;102435.63;6207818;23;20008;-84
2023/03/04 09:13:19;;;;;;;8.98;3.80;;;;;;;6.29;83.33;102434.56;6206116;23;20004;-83
2023/03/04 09:15:46;;;;;;;8.80;3.45;;;;;;;6.96;82.71;102423.34;6207335;23;20001;-83
2023/03/04 09:18:13;;;;;;;10.45;3.90;;;;;;;7.36;79.88;102428.22;6207409;23;20696;-83
2023/03/04 09:20:38;;;;;;;10.82;3.22;;;;;;;7.73;77.73;102409.16;6210733;23;20028;-82
2023/03/04 09:23:04;;;;;;;12.63;3.90;;;;;;;8.41;74.67;102414.34;6211247;23;20016;-84
2023/03/04 09:25:29;;;;;;;6.75;2.92;;;;;;;8.62;73.39;102421.94;6205416;23;20005;-83
2023/03/04 09:27:55;;;;;;;10.40;3.10;;;;;;;8.74;71.85;102420.84;6206396;23;20012;-82
2023/03/04 09:30:20;;;;;;;7.53;2.67;;;;;;;8.40;71.30;102416.13;6206733;23;20012;-81
2023/03/04 09:32:46;;;;;;;7.50;2.47;;;;;;;8.12;72.68;102415.66;6207028;23;20173;-83
2023/03/04 09:35:11;;;;;;;9.15;2.97;;;;;;;9.06;71.06;102406.09;6208239;23;20328;-84
2023/03/04 09:37:37;;;;;;;7.30;2.67;;;;;;;9.26;67.57;102406.56;6206742;23;20011;-84
2023/03/04 09:40:04;;;;;;;8.88;2.80;;;;;;;8.69;68.54;102420.03;6206675;23;20027;-84
2023/03/04 09:42:41;;;;;;;6.38;2.42;;;;;;;8.08;71.73;102415.75;6205855;23;20091;-83
2023/03/04 09:45:07;;;;;;;7.75;3.17;;;;;;;8.20;71.11;102413.78;6206244;23;20004;-83
2023/03/04 09:47:36;;;;;;;5.88;2.85;;;;;;;8.11;70.81;102413.03;6204487;23;20311;-83
2023/03/04 09:50:06;;;;;;;5.90;2.55;;;;;;;8.12;71.50;102401.53;6204856;23;20426;-83
2023/03/04 09:53:10;;;;;;;6.40;3.03;;;;;;;8.43;71.16;102412.53;6204487;23;20099;-83
2023/03/04 09:55:41;;;;;;;5.28;3.05;;;;;;;8.54;70.22;102404.41;6193388;23;20013;-83
2023/03/04 09:58:40;;;;;;;6.82;3.00;;;;;;;9.07;69.80;102402.50;6210542;23;20326;-84
2023/03/04 10:01:25;;;;;;;7.78;3.60;;;;;;;9.13;66.43;102413.03;6208742;23;20000;-84
2023/03/04 10:04:02;;;;;;;7.28;3.00;;;;;;;8.75;67.50;102408.47;6203467;23;20008;-84
2023/03/04 10:06:30;;;;;;;7.07;2.63;;;;;;;8.60;68.69;102401.63;6207284;23;20088;-83
2023/03/04 10:09:02;;;;;;;6.93;2.90;;;;;;;8.56;69.15;102403.47;6206914;23;20331;-84
2023/03/04 10:11:46;;;;;;;4.50;2.60;;;;;;;8.31;68.89;102402.09;6208208;23;20431;-82
2023/03/04 10:14:20;;;;;;;5.88;2.47;;;;;;;8.01;70.56;102408.78;6208628;23;20042;-83
2023/03/04 10:16:52;;;;;;;6.50;2.40;;;;;;;7.56;72.19;102396.13;6206292;23;20047;-83
2023/03/04 10:19:27;;;;;;;6.80;2.63;;;;;;;7.35;74.05;102405.25;6207972;23;20001;-83
2023/03/04 10:21:52;;;;;;;4.80;2.85;;;;;;;7.17;74.47;102402.84;6207506;23;20004;-83
2023/03/04 10:24:21;;;;;;;4.38;2.50;;;;;;;7.12;75.39;102399.38;6207844;23;20343;-82
2023/03/04 10:26:56;;;;;;;9.85;3.05;;;;;;;7.12;75.80;102402.88;6209050;23;20012;-83
2023/03/04 10:29:23;;;;;;;6.25;2.70;;;;;;;7.09;75.39;102408.22;6208777;23;20005;-82
2023/03/04 10:31:50;;;;;;;5.53;3.00;;;;;;;6.95;76.23;102399.56;6207825;23;20078;-82
2023/03/04 10:34:16;;;;;;;5.55;2.90;;;;;;;6.87;77.65;102404.94;6208757;23;20009;-84
2023/03/04 10:36:50;;;;;;;7.47;2.97;;;;;;;6.85;78.04;102400.53;6206690;23;20009;-83
2023/03/04 10:39:38;;;;;;;6.07;2.53;;;;;;;6.92;78.47;102395.16;6210484;23;20411;-82
2023/03/04 10:42:25;;;;;;;5.00;2.55;;;;;;;7.57;77.56;102389.97;6224020;23;20019;-80
2023/03/04 10:44:59;;;;;;;4.50;3.35;;;;;;;8.35;73.32;102383.44;6224199;23;20028;-81
2023/03/04 10:47:28;;;;;;;4.13;2.60;;;;;;;8.60;71.33;102385.72;6213708;23;20032;-83
2023/03/04 10:49:58;;;;;;;3.10;2.30;;;;;;;8.58;71.65;102382.22;6204968;23;20001;-81
2023/03/04 10:52:29;;;;;;;5.93;2.30;;;;;;;8.58;70.76;102376.91;6208529;23;20217;-82
2023/03/04 10:55:05;;;;;;;5.32;2.70;;;;;;;8.53;70.84;102387.63;6208770;23;20103;-82
2023/03/04 10:57:37;;;;;;;6.97;3.55;;;;;;;8.18;71.59;102391.69;6208741;23;20290;-83
2023/03/04 11:00:20;;;;;;;4.40;2.20;;;;;;;7.87;72.19;102383.34;6209698;23;20055;-82
2023/03/04 11:02:47;;;;;;;5.07;2.63;;;;;;;7.49;73.15;102382.13;6208022;23;20495;-83
2023/03/04 11:05:22;;;;;;;6.75;2.35;;;;;;;7.27;75.13;102385.91;6207896;23;20111;-82
2023/03/04 11:07:57;;;;;;;5.40;2.20;;;;;;;7.02;76.11;102384.47;6208389;23;20004;-84
2023/03/04 11:10:24;;;;;;;4.30;2.10;;;;;;;6.87;76.76;102374.94;6211582;23;20103;-84
2023/03/04 11:12:58;;;;;;;4.68;2.50;;;;;;;6.75;77.58;102370.66;6207769;23;20040;-83
2023/03/04 11:15:26;;;;;;;7.25;2.70;;;;;;;6.71;78.40;102369.81;6182102;23;20031;-81
2023/03/04 11:18:09;;;;;;;7.40;2.40;;;;;;;6.79;78.41;102380.31;6209028;23;20013;-82
2023/03/04 11:20:39;;;;;;;6.07;3.47;;;;;;;6.77;78.94;102370.63;6207230;23;20058;-81
2023/03/04 11:23:32;;;;;;;7.78;3.00;;;;;;;6.79;78.98;102367.09;6208079;23;20030;-83
2023/03/04 11:26:02;;;;;;;5.07;2.70;;;;;;;6.71;79.69;102367.16;6192196;23;20016;-83
2023/03/04 11:28:40;;;;;;;6.03;2.38;;;;;;;6.63;80.04;102373.44;6207421;23;20318;-82
2023/03/04 11:31:14;;;;;;;5.82;2.50;;;;;;;6.62;80.83;102366.38;6207028;23;20031;-80